Hobe Sound, FL (33455)

5:02 PM EDT on July 05, 2015 (GMT -0400)
HOBE HILLS | | Change Station
CLOSE
Current Station
Personal Weather Station
Location: Hobe Sound, FL
Elevation: 33 ft
Nearby Weather Stations

Elev 33 ft 27.05 °N, 80.13 °W | Updated 28 seconds ago

Mostly Cloudy
Mostly Cloudy
84.6 °F
Feels Like 103 °F
N
4.9
Wind Variable Wind from SE
Gusts 7.4 mph

Today
High -- | Low -- °F
--% Chance of Precip.
Yesterday
High -- | Low -- °F
Precip. -- in
6:31 AM 8:18 PM
Waning Gibbous, 82% visible
Pressure 30.15 in
Visibility 7.0 miles
Clouds Scattered Clouds 1500 ft
Heat Index 103 °F
Dew Point 83 °F
Humidity 95%
Rainfall 0.00 in
Snow Depth Not available.
UV 6 out of 12
Pollen 4.50 out of 12
Air Quality Not available.
Flu Activity Not available.
METAR KSUA 052047Z 11010KT 7SM SCT015 28/23 A3015

More Conditions Fewer Conditions

Pressure 30.15 in
Visibility 7.0 miles
Clouds Scattered Clouds 1500 ft
Heat Index 103 °F
Dew Point 83 °F
Humidity 95%
Rainfall 0.00 in
Snow Depth Not available.
UV 6 out of 12
Pollen 4.50 out of 12
Air Quality Not available.
Flu Activity Not available.
METAR KSUA 052047Z 11010KT 7SM SCT015 28/23 A3015

More Conditions Fewer Conditions

Nowcast | as of 3:47 PM EDT on July 5, 2015

The East Coast sea breeze continues to push inland across the interior counties at mid afternoon. Coverage and intensity of lightning storms will continue to increase as the sea breeze boundary interacts with lake breezes...the West Coast sea breeze and thunderstorm outflow boundaries. Some storms will become strong over interior Volusia...Seminole...Orange...Lake and Osceola counties through 7 PM...containing frequent lightning strikes...strong downburst winds around 50 mph...hail and very heavy rain. Storms are slow moving...generally toward the north or northeast at 10 mph. Move indoors to safety if skies look threatening or if you hear thunder. Additional details...including graphics are available online at: http://www.Srh.NOAA.Gov/mlb/blog.Php

×

10-Day Weather Forecast

×

Almanac

Astronomy

Jul. 05, 2015 Rise Set
Actual Time
Civil Twilight
Nautical Twilight
Astronomical Twilight
Moon
Length of Visible Light
Length of Day
Tomorrow will be .
, % of the Moon is Illuminated

Today's Extremes

State Highs State Lows

Community

WunderPhotos

Upload Photos

1,835,386 photos uploaded!

WunderBlogs® & News

Nearby

Air Quality

  Air Quality AQ Index Pollutant
Not available.

Snow Depth

Station Depth Elevation

Earthquake Activity

City Distance Mag. Time & Date
Minimum magnitude displayed is 2.5.

Coastal Water Temperatures

Place Temperature

Stations

Nearby Weather Stations

Station Location Temp. Windchill Dew Point Humidity Wind Precip. Elev Updated Type